Time;durP1;ratioP1;P1;durP2;ratioP2;P2;SDS_P1;SDS_P2;PMS_P1;PMS_P2;Temp;Humidity;BMP_temperature;BMP_pressure;BME280_temperature;BME280_humidity;BME280_pressure;Samples;Min_cycle;Max_cycle;Signal;HPM_P1;HPM_P2
2021/05/31 00:00:27;;;;;;;1.38;1.38;;;18.10;77.60;;;;;;4158053;28;20136;-51
2021/05/31 00:02:50;;;;;;;0.47;0.47;;;18.10;77.70;;;;;;4158304;28;20053;-50
2021/05/31 00:05:13;;;;;;;0.10;0.10;;;18.10;77.80;;;;;;4158213;28;20060;-51
2021/05/31 00:07:34;;;;;;;1.40;0.98;;;18.10;77.80;;;;;;4158311;28;20046;-54
2021/05/31 00:09:57;;;;;;;0.30;0.30;;;18.10;77.80;;;;;;4159112;28;20124;-53
2021/05/31 00:12:19;;;;;;;0.00;0.00;;;18.10;77.90;;;;;;4158115;28;20519;-52
2021/05/31 00:14:42;;;;;;;5.68;0.43;;;18.10;78.00;;;;;;4166600;28;20053;-52
2021/05/31 00:17:04;;;;;;;0.10;0.10;;;18.00;78.00;;;;;;4158017;28;20578;-49
2021/05/31 00:19:25;;;;;;;0.65;0.65;;;18.10;78.20;;;;;;4157809;28;20530;-53
2021/05/31 00:21:47;;;;;;;0.55;0.55;;;18.00;78.20;;;;;;4156686;28;20053;-51
2021/05/31 00:24:08;;;;;;;0.95;0.95;;;18.00;78.20;;;;;;4157703;28;20104;-53
2021/05/31 00:26:31;;;;;;;0.43;0.43;;;18.00;78.20;;;;;;4157850;28;20510;-51
2021/05/31 00:28:52;;;;;;;0.80;0.47;;;18.00;78.30;;;;;;4157968;28;20050;-52
2021/05/31 00:31:14;;;;;;;;;;;18.00;79.20;;;;;;4158446;28;20496;-52
2021/05/31 00:33:35;;;;;;;1.13;1.13;;;18.00;78.40;;;;;;4157937;28;19921;-52
2021/05/31 00:35:57;;;;;;;0.77;0.77;;;18.00;78.40;;;;;;4157675;28;20770;-54
2021/05/31 00:38:19;;;;;;;0.85;0.85;;;18.00;78.50;;;;;;4157767;28;20504;-52
2021/05/31 00:40:41;;;;;;;0.13;0.13;;;18.00;78.60;;;;;;4157559;28;20103;-51
2021/05/31 00:43:03;;;;;;;1.13;1.13;;;18.00;78.50;;;;;;4157784;28;20420;-54
2021/05/31 00:45:26;;;;;;;0.52;0.52;;;18.00;78.60;;;;;;4157957;28;20505;-51
2021/05/31 00:47:48;;;;;;;0.90;0.90;;;18.00;78.60;;;;;;4157788;28;20139;-54
2021/05/31 00:50:11;;;;;;;0.20;0.20;;;18.00;78.60;;;;;;4160084;28;20049;-49
2021/05/31 00:52:33;;;;;;;0.85;0.47;;;18.00;78.70;;;;;;4157817;28;20054;-49
2021/05/31 00:54:55;;;;;;;0.65;0.65;;;18.00;78.70;;;;;;4157468;28;20052;-51
2021/05/31 00:57:17;;;;;;;0.30;0.30;;;18.00;78.70;;;;;;4160967;28;20056;-53
2021/05/31 00:59:41;;;;;;;0.00;0.00;;;18.00;78.80;;;;;;4173247;28;20114;-54
2021/05/31 01:02:03;;;;;;;0.55;0.55;;;18.00;78.70;;;;;;4172711;28;20094;-54
2021/05/31 01:04:25;;;;;;;0.43;0.43;;;17.90;78.70;;;;;;4171463;28;20388;-53
2021/05/31 01:06:53;;;;;;;1.50;1.40;;;17.90;78.70;;;;;;4175311;28;20107;-48
2021/05/31 01:09:27;;;;;;;0.93;0.88;;;17.90;78.70;;;;;;4174475;28;20072;-50
2021/05/31 01:12:00;;;;;;;1.25;0.60;;;17.90;78.60;;;;;;4175315;28;20048;-49
2021/05/31 01:14:29;;;;;;;1.17;1.17;;;17.90;78.80;;;;;;4173606;28;20072;-49
2021/05/31 01:16:57;;;;;;;1.35;0.73;;;17.90;79.00;;;;;;4160263;28;20491;-51
2021/05/31 01:19:34;;;;;;;0.55;0.55;;;17.90;78.90;;;;;;4160190;28;20064;-49
2021/05/31 01:22:03;;;;;;;0.65;0.65;;;17.90;79.00;;;;;;4160221;28;20049;-53
2021/05/31 01:24:42;;;;;;;1.75;1.00;;;17.90;79.00;;;;;;4160267;28;20463;-51
2021/05/31 01:27:10;;;;;;;4.47;0.47;;;17.90;79.20;;;;;;4161845;28;20061;-47
2021/05/31 01:29:33;;;;;;;1.17;1.10;;;17.80;79.10;;;;;;4176180;28;20049;-53
2021/05/31 01:32:00;;;;;;;0.40;0.40;;;17.90;79.20;;;;;;4176354;28;20513;-52
2021/05/31 01:34:26;;;;;;;0.22;0.22;;;17.80;79.20;;;;;;4176309;28;20049;-51
2021/05/31 01:36:52;;;;;;;0.05;0.05;;;17.80;79.20;;;;;;4159131;28;20123;-52
2021/05/31 01:39:17;;;;;;;0.55;0.55;;;17.80;79.30;;;;;;4159785;28;20412;-52
2021/05/31 01:41:40;;;;;;;0.85;0.85;;;17.80;79.20;;;;;;4160078;28;20136;-50
2021/05/31 01:44:02;;;;;;;0.65;0.65;;;17.80;79.30;;;;;;4164604;28;20550;-53
2021/05/31 01:46:25;;;;;;;2.75;0.45;;;17.80;79.40;;;;;;4160095;28;20405;-53
2021/05/31 01:48:48;;;;;;;0.90;0.90;;;17.80;79.40;;;;;;4143376;28;20058;-52
2021/05/31 01:51:10;;;;;;;1.35;1.35;;;17.80;79.30;;;;;;4145868;28;20046;-54
2021/05/31 01:53:32;;;;;;;0.15;0.15;;;17.80;79.40;;;;;;4165284;28;20607;-49
2021/05/31 01:55:54;;;;;;;0.85;0.85;;;17.80;79.40;;;;;;4175828;28;20099;-50
2021/05/31 01:58:17;;;;;;;1.00;1.00;;;17.80;79.30;;;;;;4175878;28;20056;-52
2021/05/31 02:00:39;;;;;;;1.08;1.08;;;17.80;79.30;;;;;;4159608;28;20042;-53
2021/05/31 02:03:03;;;;;;;1.30;1.20;;;17.80;79.30;;;;;;4144797;28;20413;-53
2021/05/31 02:05:29;;;;;;;3.38;1.00;;;17.80;80.30;;;;;;4164627;28;20056;-53
2021/05/31 02:07:52;;;;;;;0.50;0.50;;;17.80;79.40;;;;;;4175821;28;20045;-51
2021/05/31 02:10:15;;;;;;;0.52;0.52;;;17.80;79.40;;;;;;4175893;28;20091;-52
2021/05/31 02:12:45;;;;;;;5.57;1.80;;;17.80;79.50;;;;;;4174972;28;20095;-53
2021/05/31 02:15:08;;;;;;;1.52;1.42;;;17.80;79.60;;;;;;4157960;28;20067;-51
2021/05/31 02:17:35;;;;;;;0.05;0.05;;;17.70;79.50;;;;;;4159161;28;20510;-52
2021/05/31 02:19:59;;;;;;;0.77;0.77;;;17.70;79.50;;;;;;4174172;28;20676;-51
2021/05/31 02:22:24;;;;;;;0.70;0.70;;;17.70;79.60;;;;;;4176077;28;20144;-54
2021/05/31 02:24:47;;;;;;;2.25;0.63;;;17.70;79.60;;;;;;4159206;28;20436;-52
2021/05/31 02:27:09;;;;;;;0.28;0.28;;;17.70;79.70;;;;;;4159030;28;20065;-50
2021/05/31 02:29:32;;;;;;;0.85;0.85;;;17.70;79.70;;;;;;4174986;28;20148;-54
2021/05/31 02:31:54;;;;;;;0.57;0.57;;;17.70;79.60;;;;;;4176081;28;20491;-54
2021/05/31 02:34:17;;;;;;;0.20;0.20;;;17.70;79.70;;;;;;4175530;28;20052;-54
2021/05/31 02:36:40;;;;;;;0.82;0.82;;;17.70;79.60;;;;;;4175647;28;20052;-51
2021/05/31 02:39:02;;;;;;;1.35;1.25;;;17.70;80.70;;;;;;4175566;28;20057;-51
2021/05/31 02:41:23;;;;;;;0.13;0.13;;;17.70;79.80;;;;;;4175679;28;20518;-50
2021/05/31 02:43:45;;;;;;;0.43;0.43;;;17.70;79.80;;;;;;4165163;28;20576;-54
2021/05/31 02:46:06;;;;;;;2.13;1.88;;;17.70;79.80;;;;;;4158856;28;20067;-51
2021/05/31 02:48:28;;;;;;;0.40;0.40;;;17.70;79.80;;;;;;4159074;28;20057;-52
2021/05/31 02:50:50;;;;;;;0.60;0.60;;;17.70;79.80;;;;;;4158750;28;20056;-52
2021/05/31 02:53:14;;;;;;;0.13;0.13;;;17.70;79.80;;;;;;4162709;28;20049;-49
2021/05/31 02:55:37;;;;;;;0.95;0.65;;;17.60;79.80;;;;;;4174820;28;20045;-51
2021/05/31 02:57:59;;;;;;;0.45;0.45;;;17.60;79.90;;;;;;4174858;28;20118;-54
2021/05/31 03:00:24;;;;;;;0.28;0.28;;;17.60;80.00;;;;;;4175018;28;20131;-52
2021/05/31 03:02:46;;;;;;;0.25;0.25;;;17.60;80.00;;;;;;4175437;28;20059;-52
2021/05/31 03:05:10;;;;;;;0.45;0.45;;;17.60;80.10;;;;;;4174082;28;20088;-53
2021/05/31 03:07:32;;;;;;;0.10;0.10;;;17.60;80.20;;;;;;4174898;28;20139;-51
2021/05/31 03:09:55;;;;;;;0.10;0.10;;;17.60;80.10;;;;;;4158609;28;20056;-54
2021/05/31 03:12:17;;;;;;;1.90;1.75;;;17.60;80.10;;;;;;4158658;28;20075;-54
2021/05/31 03:14:38;;;;;;;0.55;0.55;;;17.60;80.20;;;;;;4158286;28;20053;-48
2021/05/31 03:17:00;;;;;;;0.08;0.08;;;17.60;80.20;;;;;;4154419;28;20153;-51
2021/05/31 03:19:22;;;;;;;1.30;0.55;;;17.60;80.20;;;;;;4144758;28;20056;-50
2021/05/31 03:21:44;;;;;;;0.75;0.65;;;17.60;80.20;;;;;;4158482;28;20067;-54
2021/05/31 03:24:05;;;;;;;0.30;0.30;;;17.60;80.20;;;;;;4175012;28;20047;-50
2021/05/31 03:26:28;;;;;;;0.13;0.13;;;17.60;80.20;;;;;;4174710;28;20059;-53
2021/05/31 03:28:49;;;;;;;0.10;0.10;;;17.60;81.20;;;;;;4163420;28;20041;-53
2021/05/31 03:31:11;;;;;;;0.15;0.15;;;17.60;80.30;;;;;;4158406;28;20492;-55
2021/05/31 03:33:32;;;;;;;0.00;0.00;;;17.60;80.40;;;;;;4166712;28;20053;-49
2021/05/31 03:35:55;;;;;;;0.00;0.00;;;17.60;80.40;;;;;;4174697;28;20059;-52
2021/05/31 03:38:16;;;;;;;1.20;0.57;;;17.60;80.40;;;;;;4173662;28;20061;-51
2021/05/31 03:40:38;;;;;;;0.22;0.22;;;17.60;80.40;;;;;;4174090;28;20053;-53
2021/05/31 03:43:02;;;;;;;0.00;0.00;;;17.60;80.40;;;;;;4172944;28;20622;-50
2021/05/31 03:45:24;;;;;;;0.03;0.03;;;17.60;80.50;;;;;;4174477;28;20140;-52
2021/05/31 03:47:46;;;;;;;0.08;0.08;;;17.60;80.40;;;;;;4169345;28;20056;-52
2021/05/31 03:50:09;;;;;;;0.00;0.00;;;17.60;80.50;;;;;;4161954;28;20052;-50
2021/05/31 03:52:31;;;;;;;0.73;0.40;;;17.60;80.50;;;;;;4174637;28;20500;-52
2021/05/31 03:54:52;;;;;;;0.40;0.40;;;17.60;80.60;;;;;;4174400;28;20056;-51
2021/05/31 03:57:14;;;;;;;1.02;1.02;;;17.60;80.60;;;;;;4173684;28;20045;-51
2021/05/31 03:59:37;;;;;;;0.68;0.65;;;17.60;80.60;;;;;;4173823;28;20045;-49
2021/05/31 04:02:00;;;;;;;0.03;0.03;;;17.60;80.70;;;;;;4158334;28;20449;-52
2021/05/31 04:04:22;;;;;;;1.80;1.70;;;17.60;80.80;;;;;;4158062;28;20041;-47
2021/05/31 04:11:33;;;;;;;0.00;0.00;;;17.60;81.60;;;;;;4157828;28;20045;-54
2021/05/31 04:12:22;;;;;;;0.35;0.35;;;17.50;80.80;;;;;;4157631;28;20041;-54
2021/05/31 04:14:45;;;;;;;0.20;0.20;;;17.50;80.70;;;;;;4158051;28;20156;-52
2021/05/31 04:17:07;;;;;;;0.00;0.00;;;17.50;80.80;;;;;;4157933;28;20455;-52
2021/05/31 04:19:29;;;;;;;0.68;0.68;;;17.50;80.90;;;;;;4157631;28;20053;-52
2021/05/31 04:21:52;;;;;;;0.60;0.60;;;17.50;80.90;;;;;;4157630;28;20135;-52
2021/05/31 04:24:14;;;;;;;0.13;0.13;;;17.50;80.80;;;;;;4157750;28;20415;-52
2021/05/31 04:26:36;;;;;;;0.20;0.20;;;17.50;80.90;;;;;;4157552;28;20455;-55
2021/05/31 04:28:57;;;;;;;0.20;0.20;;;17.50;80.90;;;;;;4158190;28;20862;-53
2021/05/31 04:31:20;;;;;;;0.10;0.10;;;17.50;80.90;;;;;;4157448;28;20053;-51
2021/05/31 04:33:43;;;;;;;0.28;0.28;;;17.50;80.90;;;;;;4157981;28;20061;-54
2021/05/31 04:36:05;;;;;;;0.00;0.00;;;17.50;80.90;;;;;;4157930;28;20132;-52
2021/05/31 04:38:27;;;;;;;2.25;2.00;;;17.50;81.00;;;;;;4158963;28;20041;-54
2021/05/31 04:40:48;;;;;;;0.00;0.00;;;17.50;81.80;;;;;;4161000;28;20053;-49
2021/05/31 04:43:10;;;;;;;0.10;0.10;;;17.50;81.00;;;;;;4160960;28;20681;-53
2021/05/31 04:45:32;;;;;;;0.40;0.40;;;17.50;81.00;;;;;;4160598;28;20077;-55
2021/05/31 04:47:55;;;;;;;2.28;0.65;;;17.50;81.00;;;;;;4160819;28;20053;-56
2021/05/31 04:50:16;;;;;;;0.35;0.35;;;17.50;81.10;;;;;;4169120;28;20064;-53
2021/05/31 04:52:37;;;;;;;0.03;0.03;;;17.50;81.20;;;;;;4177404;28;20144;-49
2021/05/31 04:54:59;;;;;;;0.30;0.30;;;17.50;81.20;;;;;;4177158;28;20052;-51
2021/05/31 04:57:21;;;;;;;0.28;0.28;;;17.50;81.20;;;;;;4176289;28;20507;-54
2021/05/31 04:59:43;;;;;;;0.38;0.38;;;17.50;82.10;;;;;;4176808;28;20433;-53
2021/05/31 05:02:04;;;;;;;0.28;0.28;;;17.50;81.30;;;;;;4177011;28;20052;-48
2021/05/31 05:04:28;;;;;;;1.20;1.20;;;17.50;82.20;;;;;;4177090;28;20071;-51
2021/05/31 05:06:49;;;;;;;0.65;0.65;;;17.50;81.40;;;;;;4176805;28;20479;-53
2021/05/31 05:09:10;;;;;;;0.10;0.10;;;17.50;81.40;;;;;;4162817;28;20045;-53
2021/05/31 05:11:32;;;;;;;1.45;1.38;;;17.50;81.50;;;;;;4160709;28;20045;-53
2021/05/31 05:13:54;;;;;;;0.22;0.22;;;17.50;81.50;;;;;;4160415;28;20108;-51
2021/05/31 05:16:16;;;;;;;0.93;0.47;;;17.50;81.70;;;;;;4160337;28;20162;-49
2021/05/31 05:18:43;;;;;;;0.15;0.15;;;17.50;81.90;;;;;;4160438;28;20061;-50
2021/05/31 05:21:06;;;;;;;0.05;0.05;;;17.50;82.10;;;;;;4176175;28;20420;-51
2021/05/31 05:23:28;;;;;;;2.08;1.65;;;17.50;82.20;;;;;;4176769;28;20119;-53
2021/05/31 05:25:52;;;;;;;7.03;1.75;;;17.50;82.30;;;;;;4176545;28;20057;-50
2021/05/31 05:28:14;;;;;;;0.98;0.98;;;17.50;82.40;;;;;;4176070;28;20414;-51
2021/05/31 05:30:35;;;;;;;6.45;2.03;;;17.60;83.20;;;;;;4175264;28;20049;-52
2021/05/31 05:33:00;;;;;;;0.15;0.15;;;17.60;83.40;;;;;;4176876;28;20053;-51
2021/05/31 05:35:25;;;;;;;0.60;0.60;;;17.70;83.10;;;;;;4176592;28;20049;-54
2021/05/31 05:43:34;;;;;;;0.00;0.00;;;17.70;82.00;;;;;;4167689;28;20103;-55
2021/05/31 05:46:02;;;;;;;1.45;1.35;;;17.70;81.90;;;;;;4164234;28;20049;-54
2021/05/31 05:48:28;;;;;;;0.25;0.25;;;17.60;81.80;;;;;;4160056;28;20052;-51
2021/05/31 05:50:49;;;;;;;1.52;1.25;;;17.60;81.80;;;;;;4159429;28;20140;-54
2021/05/31 05:53:12;;;;;;;0.10;0.10;;;17.60;81.80;;;;;;4164752;28;20100;-55
2021/05/31 05:55:34;;;;;;;1.40;1.25;;;17.60;81.80;;;;;;4160104;28;20061;-52
2021/05/31 05:57:57;;;;;;;0.25;0.25;;;17.60;81.70;;;;;;4166555;28;20052;-52
2021/05/31 06:00:21;;;;;;;0.65;0.65;;;17.60;81.70;;;;;;4170015;28;20116;-52
2021/05/31 06:02:43;;;;;;;5.93;1.40;;;17.60;81.70;;;;;;4174794;28;20091;-52
2021/05/31 06:05:06;;;;;;;0.32;0.32;;;17.50;82.50;;;;;;4176265;28;20408;-57
2021/05/31 06:07:28;;;;;;;0.82;0.82;;;17.50;81.70;;;;;;4171173;28;20033;-50
2021/05/31 06:09:51;;;;;;;10.98;2.15;;;17.50;81.60;;;;;;4166663;28;20377;-52
2021/05/31 06:12:13;;;;;;;4.10;3.70;;;17.50;81.60;;;;;;4174393;28;20051;-55
2021/05/31 06:14:34;;;;;;;0.10;0.10;;;17.50;81.60;;;;;;4162293;28;20060;-54
2021/05/31 06:16:56;;;;;;;0.65;0.65;;;17.50;81.60;;;;;;4159538;28;20072;-50
2021/05/31 06:19:17;;;;;;;1.05;0.85;;;17.50;81.80;;;;;;4176111;28;20045;-53
2021/05/31 06:21:39;;;;;;;1.92;1.73;;;17.50;81.90;;;;;;4159257;28;20492;-50
2021/05/31 06:24:01;;;;;;;0.43;0.43;;;17.50;81.80;;;;;;4168824;28;20484;-49
2021/05/31 06:26:24;;;;;;;0.90;0.88;;;17.50;81.80;;;;;;4174787;28;20133;-52
2021/05/31 06:28:46;;;;;;;0.93;0.30;;;17.50;82.60;;;;;;4161585;28;20125;-53
2021/05/31 06:31:07;;;;;;;1.27;0.47;;;17.50;81.80;;;;;;4159363;28;20136;-50
2021/05/31 06:33:29;;;;;;;1.13;1.13;;;17.50;81.80;;;;;;4158794;28;20045;-50
2021/05/31 06:35:52;;;;;;;1.15;0.95;;;17.50;81.80;;;;;;4158681;28;20041;-54
2021/05/31 06:38:14;;;;;;;1.65;0.80;;;17.50;81.80;;;;;;4159192;28;20049;-53
2021/05/31 06:40:36;;;;;;;0.00;0.00;;;17.50;81.70;;;;;;4159100;28;20049;-49
2021/05/31 06:43:00;;;;;;;1.02;1.02;;;17.60;81.70;;;;;;4159073;28;20045;-50
2021/05/31 06:45:24;;;;;;;0.22;0.22;;;17.50;81.60;;;;;;4159184;28;20057;-52
2021/05/31 06:47:45;;;;;;;1.98;1.88;;;17.50;81.50;;;;;;4158344;28;20041;-48
2021/05/31 06:50:08;;;;;;;1.45;1.35;;;17.50;81.40;;;;;;4158910;28;20059;-50
2021/05/31 06:52:31;;;;;;;0.50;0.50;;;17.50;81.40;;;;;;4159157;28;20478;-48
2021/05/31 06:54:52;;;;;;;1.27;1.17;;;17.50;81.40;;;;;;4158469;28;20088;-54
2021/05/31 06:57:15;;;;;;;0.82;0.82;;;17.60;82.30;;;;;;4159103;28;20053;-50
2021/05/31 06:59:37;;;;;;;0.38;0.38;;;17.60;81.30;;;;;;4158688;28;20048;-50
2021/05/31 07:01:59;;;;;;;1.23;1.17;;;17.60;81.30;;;;;;4158705;28;20042;-53
2021/05/31 07:04:21;;;;;;;0.57;0.57;;;17.60;81.30;;;;;;4158456;28;20045;-49
2021/05/31 07:06:42;;;;;;;0.35;0.20;;;17.60;81.30;;;;;;4158439;28;20041;-52
2021/05/31 07:09:05;;;;;;;0.13;0.10;;;17.60;81.20;;;;;;4158677;28;20049;-51
2021/05/31 07:11:26;;;;;;;0.13;0.13;;;17.60;81.50;;;;;;4158658;28;20512;-52
2021/05/31 07:13:48;;;;;;;1.10;0.98;;;17.60;81.20;;;;;;4158677;28;20128;-49
2021/05/31 07:16:14;;;;;;;2.40;0.57;;;17.60;81.20;;;;;;4158509;28;20563;-52
2021/05/31 07:18:36;;;;;;;3.83;2.17;;;17.60;81.20;;;;;;4158707;28;20053;-52
2021/05/31 07:20:58;;;;;;;2.80;1.17;;;17.60;81.10;;;;;;4166115;28;20132;-50
2021/05/31 07:23:21;;;;;;;0.22;0.22;;;17.60;81.90;;;;;;4174861;28;20072;-49
2021/05/31 07:25:43;;;;;;;0.45;0.45;;;17.60;82.30;;;;;;4174772;28;20063;-51
2021/05/31 07:28:05;;;;;;;0.60;0.60;;;17.70;82.10;;;;;;4174862;28;20049;-51
2021/05/31 07:30:27;;;;;;;1.88;1.77;;;17.70;81.90;;;;;;4174918;28;20048;-52
2021/05/31 07:32:50;;;;;;;0.00;0.00;;;17.70;81.80;;;;;;4174643;28;20056;-46
2021/05/31 07:35:12;;;;;;;0.25;0.25;;;17.70;81.60;;;;;;4173583;28;20626;-49
2021/05/31 07:37:34;;;;;;;2.30;0.55;;;17.70;81.60;;;;;;4172866;28;20098;-50
2021/05/31 07:39:56;;;;;;;0.70;0.70;;;17.70;81.50;;;;;;4172866;28;20522;-50
2021/05/31 07:42:18;;;;;;;1.27;1.27;;;17.70;81.40;;;;;;4158094;28;20492;-49
2021/05/31 07:44:40;;;;;;;1.48;0.70;;;17.70;81.30;;;;;;4164379;28;20052;-49
2021/05/31 07:47:02;;;;;;;3.13;1.48;;;17.70;81.20;;;;;;4174434;28;20068;-51
2021/05/31 07:49:25;;;;;;;1.15;0.90;;;17.70;81.30;;;;;;4174705;28;20060;-51
2021/05/31 07:51:47;;;;;;;1.85;1.50;;;17.70;81.20;;;;;;4174376;28;20410;-53
2021/05/31 07:54:09;;;;;;;0.20;0.20;;;17.80;81.20;;;;;;4174674;28;20051;-51
2021/05/31 07:56:31;;;;;;;1.40;0.57;;;17.70;81.20;;;;;;4171022;28;20076;-49
2021/05/31 07:58:53;;;;;;;0.00;0.00;;;17.70;81.10;;;;;;4158129;28;20467;-48
2021/05/31 08:01:15;;;;;;;1.75;0.93;;;17.70;81.10;;;;;;4158048;28;20599;-49
2021/05/31 08:03:39;;;;;;;0.13;0.13;;;17.70;81.10;;;;;;4141640;28;20053;-47
2021/05/31 08:06:02;;;;;;;1.23;1.13;;;17.70;81.00;;;;;;4141828;28;20137;-50
2021/05/31 08:08:23;;;;;;;3.35;2.55;;;17.80;81.00;;;;;;4141746;28;20061;-47
2021/05/31 08:10:45;;;;;;;0.60;0.60;;;17.80;81.00;;;;;;4158198;28;20132;-46
2021/05/31 08:13:06;;;;;;;0.25;0.25;;;17.80;80.90;;;;;;4157998;28;20055;-48
2021/05/31 08:15:28;;;;;;;0.47;0.47;;;17.80;80.90;;;;;;4160925;28;20099;-49
2021/05/31 08:17:49;;;;;;;1.00;0.20;;;17.80;80.80;;;;;;4161827;28;20057;-48
2021/05/31 08:20:13;;;;;;;1.17;1.17;;;17.80;80.70;;;;;;4177668;28;20419;-50
2021/05/31 08:22:36;;;;;;;0.30;0.30;;;17.90;80.60;;;;;;4163691;28;20156;-50
2021/05/31 08:24:58;;;;;;;0.00;0.00;;;17.90;80.60;;;;;;4177731;28;20135;-48
2021/05/31 08:27:20;;;;;;;2.28;1.00;;;17.90;80.50;;;;;;4177417;28;20049;-47
2021/05/31 08:29:42;;;;;;;3.15;0.80;;;17.90;80.50;;;;;;4171388;28;21615;-50
2021/05/31 08:32:04;;;;;;;0.45;0.45;;;17.90;80.50;;;;;;4167077;28;20045;-51
2021/05/31 08:34:27;;;;;;;0.45;0.45;;;18.00;80.50;;;;;;4177036;28;20144;-48
2021/05/31 08:36:48;;;;;;;1.67;1.67;;;18.00;80.50;;;;;;4161033;28;20045;-47
2021/05/31 08:39:12;;;;;;;2.13;1.33;;;18.00;80.40;;;;;;4145814;28;20119;-47
2021/05/31 08:41:35;;;;;;;0.05;0.05;;;18.00;80.40;;;;;;4146001;28;20112;-46
2021/05/31 08:43:57;;;;;;;1.58;1.48;;;18.00;80.30;;;;;;4158018;28;20045;-50
2021/05/31 08:46:20;;;;;;;2.97;0.75;;;18.10;80.40;;;;;;4159365;28;20056;-51
2021/05/31 08:48:41;;;;;;;2.45;1.75;;;18.10;80.20;;;;;;4159543;28;20077;-46
2021/05/31 08:51:04;;;;;;;0.57;0.57;;;18.20;80.30;;;;;;4160897;28;20053;-48
2021/05/31 08:53:25;;;;;;;1.27;1.25;;;18.20;80.20;;;;;;4159623;28;20045;-50
2021/05/31 08:55:49;;;;;;;1.40;1.30;;;18.30;80.10;;;;;;4159354;28;20045;-51
2021/05/31 08:58:10;;;;;;;1.48;1.38;;;18.30;79.80;;;;;;4159385;28;20140;-51
2021/05/31 09:00:34;;;;;;;1.40;1.35;;;18.40;79.80;;;;;;4144018;28;20417;-49
2021/05/31 09:03:00;;;;;;;0.85;0.85;;;18.50;80.00;;;;;;4155441;28;20052;-50
2021/05/31 09:05:30;;;;;;;1.98;1.60;;;18.50;79.80;;;;;;4177115;28;20130;-46
2021/05/31 09:07:52;;;;;;;1.40;1.40;;;18.50;79.60;;;;;;4176342;28;20045;-53
2021/05/31 09:10:19;;;;;;;1.08;0.68;;;18.50;79.50;;;;;;4176293;28;20139;-47
2021/05/31 09:12:42;;;;;;;1.60;1.50;;;18.60;79.30;;;;;;4176891;28;20132;-49
2021/05/31 09:15:06;;;;;;;0.38;0.38;;;18.70;79.10;;;;;;4177062;28;20534;-51
2021/05/31 09:17:29;;;;;;;1.25;1.25;;;18.70;78.80;;;;;;4176932;28;20052;-45
2021/05/31 09:19:51;;;;;;;0.85;0.85;;;18.80;78.70;;;;;;4176453;28;20056;-48
2021/05/31 09:22:12;;;;;;;0.47;0.47;;;18.80;78.60;;;;;;4171182;28;20057;-49
2021/05/31 09:24:37;;;;;;;0.52;0.52;;;18.90;78.60;;;;;;4158898;28;20045;-48
2021/05/31 09:27:00;;;;;;;1.27;1.17;;;18.90;78.60;;;;;;4158590;28;20089;-52
2021/05/31 09:29:24;;;;;;;1.42;1.33;;;19.00;78.60;;;;;;4159759;28;20136;-50
2021/05/31 09:31:46;;;;;;;4.47;1.77;;;19.00;78.50;;;;;;4160297;28;20049;-49
2021/05/31 09:34:09;;;;;;;0.03;0.03;;;19.00;78.30;;;;;;4163962;28;20056;-49
2021/05/31 09:36:34;;;;;;;1.45;1.23;;;19.10;78.20;;;;;;4169038;28;20071;-49
2021/05/31 09:38:56;;;;;;;0.82;0.82;;;19.10;78.00;;;;;;4176449;28;20045;-51
2021/05/31 09:41:23;;;;;;;1.55;1.55;;;19.20;77.60;;;;;;4161549;28;20056;-49
2021/05/31 09:43:52;;;;;;;0.40;0.22;;;19.20;77.30;;;;;;4160190;28;20045;-49
2021/05/31 09:46:14;;;;;;;0.20;0.20;;;19.30;77.10;;;;;;4159581;28;20049;-52
2021/05/31 09:48:37;;;;;;;0.68;0.68;;;19.30;76.90;;;;;;4160016;28;20103;-51
2021/05/31 09:51:00;;;;;;;1.25;1.25;;;19.40;76.80;;;;;;4158647;28;20137;-48
2021/05/31 09:53:22;;;;;;;1.02;1.02;;;19.40;76.50;;;;;;4160130;28;20041;-48
2021/05/31 09:55:46;;;;;;;1.08;1.08;;;19.40;76.50;;;;;;4175853;28;20071;-49
2021/05/31 09:58:10;;;;;;;0.40;0.35;;;19.50;76.50;;;;;;4176165;28;20438;-52
2021/05/31 10:00:32;;;;;;;0.98;0.85;;;19.50;76.20;;;;;;4166991;28;20053;-48
2021/05/31 10:02:58;;;;;;;0.03;0.03;;;19.50;75.90;;;;;;4172908;28;20052;-46
2021/05/31 10:05:29;;;;;;;1.10;1.10;;;19.60;75.80;;;;;;4166140;28;20053;-51
2021/05/31 10:07:55;;;;;;;;;;;19.60;75.70;;;;;;4159459;28;20439;-50
2021/05/31 10:10:18;;;;;;;0.85;0.75;;;19.60;75.40;;;;;;4163496;28;19921;-49
2021/05/31 10:12:45;;;;;;;0.38;0.38;;;19.60;76.10;;;;;;4159629;28;20061;-50
2021/05/31 10:15:09;;;;;;;0.35;0.35;;;19.70;75.10;;;;;;4159484;28;20115;-48
2021/05/31 10:17:31;;;;;;;1.15;0.98;;;19.70;75.00;;;;;;4174183;28;20660;-50
2021/05/31 10:19:55;;;;;;;4.45;1.35;;;19.70;74.80;;;;;;4159854;28;20065;-50
2021/05/31 10:22:17;;;;;;;0.80;0.70;;;19.70;74.50;;;;;;4163223;28;20686;-50
2021/05/31 10:24:39;;;;;;;0.10;0.10;;;19.80;74.30;;;;;;4170250;28;20052;-50
2021/05/31 10:27:03;;;;;;;4.72;2.75;;;19.80;74.10;;;;;;4159203;28;20041;-47
2021/05/31 10:29:25;;;;;;;1.02;1.02;;;19.90;73.90;;;;;;4166054;28;20590;-47
2021/05/31 10:31:47;;;;;;;0.57;0.57;;;19.90;73.50;;;;;;4165139;28;20458;-50
2021/05/31 10:34:18;;;;;;;0.20;0.20;;;19.90;73.30;;;;;;4159295;28;20124;-47
2021/05/31 10:36:40;;;;;;;0.60;0.50;;;20.00;73.20;;;;;;4174277;28;20045;-51
2021/05/31 10:39:04;;;;;;;0.40;0.40;;;20.00;73.00;;;;;;4166652;28;20160;-48
2021/05/31 10:41:26;;;;;;;0.40;0.40;;;20.00;72.80;;;;;;4168261;28;20049;-52
2021/05/31 10:43:50;;;;;;;0.50;0.50;;;20.00;72.50;;;;;;4172385;28;20483;-52
2021/05/31 10:46:15;;;;;;;0.15;0.15;;;20.10;72.50;;;;;;4175280;28;20454;-53
2021/05/31 10:48:43;;;;;;;0.57;0.57;;;20.10;72.20;;;;;;4159139;28;20045;-50
2021/05/31 10:51:13;;;;;;;1.05;0.95;;;20.10;72.00;;;;;;4158740;28;20073;-51
2021/05/31 10:53:38;;;;;;;0.30;0.30;;;20.10;71.90;;;;;;4158841;28;20147;-49
2021/05/31 10:56:03;;;;;;;1.45;1.35;;;20.20;72.60;;;;;;4161511;28;20053;-48
2021/05/31 10:58:30;;;;;;;0.00;0.00;;;20.20;71.50;;;;;;4159190;28;20045;-49
2021/05/31 11:00:57;;;;;;;2.83;1.23;;;20.30;71.30;;;;;;4160962;28;20160;-49
2021/05/31 11:03:18;;;;;;;0.85;0.75;;;20.30;71.10;;;;;;4158581;28;20107;-51
2021/05/31 11:05:40;;;;;;;0.40;0.40;;;20.30;70.90;;;;;;4158761;28;20431;-49
2021/05/31 11:08:02;;;;;;;0.00;0.00;;;20.30;70.60;;;;;;4158637;28;20045;-48
2021/05/31 11:10:30;;;;;;;0.03;0.03;;;20.40;70.50;;;;;;4168482;28;20088;-47
2021/05/31 11:12:51;;;;;;;0.10;0.10;;;20.40;70.30;;;;;;4174059;28;20056;-50
2021/05/31 11:15:14;;;;;;;0.50;0.50;;;20.40;70.00;;;;;;4167642;28;20108;-48
2021/05/31 11:17:47;;;;;;;0.30;0.30;;;20.50;70.00;;;;;;4169260;28;20163;-57
2021/05/31 11:20:13;;;;;;;0.10;0.10;;;20.50;69.70;;;;;;4174709;28;20057;-54
2021/05/31 11:22:35;;;;;;;0.15;0.15;;;20.50;69.60;;;;;;4172751;28;20049;-56
2021/05/31 11:24:58;;;;;;;0.88;0.55;;;20.60;70.30;;;;;;4166373;28;21414;-51
2021/05/31 11:27:23;;;;;;;0.17;0.17;;;20.60;69.20;;;;;;4174550;28;20060;-52
2021/05/31 11:29:45;;;;;;;0.10;0.10;;;20.60;69.10;;;;;;4158653;28;20053;-50
2021/05/31 11:32:07;;;;;;;0.25;0.25;;;20.60;69.00;;;;;;4159726;28;20057;-53
2021/05/31 11:34:29;;;;;;;0.05;0.05;;;20.60;69.00;;;;;;4145421;28;20083;-48
2021/05/31 11:36:50;;;;;;;0.00;0.00;;;20.60;68.80;;;;;;4144244;28;20057;-51
2021/05/31 11:39:18;;;;;;;9.23;1.65;;;20.70;68.60;;;;;;4162755;28;20568;-49
2021/05/31 11:41:42;;;;;;;15.40;0.98;;;20.70;68.60;;;;;;4173699;28;20055;-51
2021/05/31 11:44:06;;;;;;;0.85;0.85;;;20.70;68.60;;;;;;4172514;28;20060;-48
2021/05/31 11:46:28;;;;;;;0.68;0.68;;;20.70;68.40;;;;;;4174487;28;20069;-53
2021/05/31 11:48:49;;;;;;;0.73;0.73;;;20.80;68.50;;;;;;4173842;28;20047;-48
2021/05/31 11:51:13;;;;;;;0.68;0.68;;;20.80;68.40;;;;;;4174357;28;20052;-53
2021/05/31 11:53:44;;;;;;;2.75;1.00;;;20.80;68.30;;;;;;4174166;28;20110;-48
2021/05/31 11:56:06;;;;;;;0.00;0.00;;;20.80;68.20;;;;;;4161682;28;20067;-53
2021/05/31 11:58:28;;;;;;;0.00;0.00;;;20.90;68.30;;;;;;4156785;28;20046;-51
2021/05/31 12:00:51;;;;;;;0.85;0.85;;;20.90;68.20;;;;;;4170350;28;20053;-49
2021/05/31 12:03:16;;;;;;;0.90;0.65;;;20.90;68.20;;;;;;4165801;28;20505;-50
2021/05/31 12:05:39;;;;;;;0.28;0.28;;;20.90;68.10;;;;;;4174188;28;20045;-47
2021/05/31 12:08:07;;;;;;;1.67;0.85;;;20.90;68.00;;;;;;4171585;28;20484;-49
2021/05/31 12:10:28;;;;;;;0.35;0.30;;;21.00;68.00;;;;;;4160582;28;20041;-51
2021/05/31 12:12:50;;;;;;;1.23;0.52;;;21.00;67.80;;;;;;4174351;28;20056;-54
2021/05/31 12:15:13;;;;;;;1.85;1.75;;;21.00;67.70;;;;;;4174410;28;20059;-48
2021/05/31 12:17:39;;;;;;;0.40;0.40;;;21.00;67.40;;;;;;4172552;28;20048;-46
2021/05/31 12:20:02;;;;;;;1.33;1.23;;;21.00;67.30;;;;;;4174509;28;20057;-46
2021/05/31 12:22:28;;;;;;;1.80;1.63;;;21.10;67.00;;;;;;4174022;28;20055;-45
2021/05/31 12:24:51;;;;;;;0.25;0.25;;;21.10;66.80;;;;;;4173885;28;20498;-51
2021/05/31 12:27:13;;;;;;;0.28;0.28;;;21.10;66.60;;;;;;4173722;28;20053;-51
2021/05/31 12:29:37;;;;;;;6.93;0.80;;;21.10;66.80;;;;;;4173856;28;20068;-52
2021/05/31 12:31:58;;;;;;;0.20;0.20;;;21.20;65.00;;;;;;4174109;28;20914;-51
2021/05/31 12:34:26;;;;;;;0.47;0.47;;;21.20;64.60;;;;;;4174001;28;20049;-49